首页
METAR-TAF:

METAR-TAF

机场 :

黃刀鎮, 西北特區, 加拿大

纬度: 62-28N, 经度: 114-27W, 海拔: 205米

当前天气观测

该预报发布于19分钟前的14:39 UTC
风速7节,风向东北
温度 -23°C
湿度 76%
气压 1013 hPa
能見度: 3.2公里
多云层高于1400英尺
阴天层高于6000英尺
小雪

METAR: CYZF 231439Z 05007KT 2SM -SN BKN014 OVC060 M23/M26 A2990 RMK SC5SC3 SLP155

时间: 07:58 (14:58 UTC)

预报

该预报发布于1小时和27分钟前的13:31 UTC
预报有效从23日的 13点(UTC)到 24日的 12点(UTC)
风速7节,风向东转东北
能見度: 9.7公里
阴天层高于4000英尺
小雪
短暂存在
从 23日的 13点(UTC)到 23日的 15点(UTC)
能見度: 3.2公里
阴天层高于2000英尺
小雪
从 23日的 1500点(UTC)
风速8节,风向东转东北
能見度: 10公里
散云层高于2000英尺
阴天层高于7000英尺
小雪
短暂存在
从 23日的 15点(UTC)到 23日的 21点(UTC)
能見度: 6.4公里
阴天层高于2000英尺
小雪
从 23日的 2100点(UTC)
风速8节,风向北转东北
能見度: 10公里
散云层高于1500英尺
多云层高于3000英尺
短暂存在
从 23日的 21点(UTC)到 24日的 12点(UTC)
能見度: 9.7公里
多云层高于1500英尺
多云层高于3000英尺
小雪

TAF: CYZF 231331Z 2313/2412 07007KT 6SM -SN OVC040 TEMPO 2313/2315 2SM -SN OVC020 FM231500 07008KT P6SM -SN SCT020 OVC070 TEMPO 2315/2321 4SM -SN OVC020 FM232100 03008KT P6SM SCT015 BKN030 TEMPO 2321/2412 6SM -SN BKN015 BKN030 RMK NXT FCST BY 231800Z

超过4000个机场的气象观测和天气预报(METAR&TAF报告)。

可查询的气象台以黄色和红色小点在地图上表示。

将鼠标移到小点上方,可查看气象台名称。

然后点击查看天气观测和预报。

如需切换地图:点击带黑十字的绿色按钮放大地图;点击带横线的绿色按钮缩小地图;或者点击绿色箭头查看邻近地区的地图。


METAR-TAF: